Vail, Washington
Current Conditions -  °F | °C
As of 5:19 PM on Thursday 27 Nov 2014 (Local Time) from KOLM Reporting Station
Moderate Rain Moderate Rain  
Wind Chill: 53°   Ceiling: 900
Heat Index: 53°   Visibility: 2.5mi
Dew Point: 51°   Wind: 18mph
Humidity: 93%   Direction: 190°S
Pressure: 29.78"   Gusts: 28mph
Location:  46.8214°N, 122.662°W
Report Text: KOLM 280119Z 19016G24KT 2 1/2SM RA BR BKN009 BKN021 OVC025 12/11 A2978 RMK AO2 P0005 T01170106
Loading
Personal Weather Stations






























Interactive Weather Map New forecast layout! Learn more

10-Day Weather Forecast

Advertisements
Track Severe Weather on mobile